createdAt,value
2022-10-18T00:00:07.261Z,91.89
2022-10-18T00:02:33.835Z,91.87
2022-10-18T00:05:00.443Z,91.30
2022-10-18T00:07:26.829Z,91.58
2022-10-18T00:09:53.225Z,91.59
2022-10-18T00:12:19.612Z,91.31
2022-10-18T00:14:48.182Z,91.32
2022-10-18T00:17:14.589Z,90.83
2022-10-18T00:19:40.952Z,91.50
2022-10-18T00:22:07.350Z,91.32
2022-10-18T00:24:33.714Z,91.38
2022-10-18T00:27:00.088Z,91.95
2022-10-18T00:29:26.490Z,92.22
2022-10-18T00:31:52.874Z,92.14
2022-10-18T00:34:19.252Z,91.55
2022-10-18T00:36:45.845Z,91.35
2022-10-18T00:39:15.679Z,91.25
2022-10-18T00:41:42.228Z,91.17
2022-10-18T00:44:11.602Z,91.18
2022-10-18T00:46:39.222Z,91.74
2022-10-18T00:49:07.903Z,91.63
2022-10-18T00:51:38.359Z,91.41
2022-10-18T00:54:04.884Z,91.28
2022-10-18T00:56:33.308Z,91.25
2022-10-18T00:58:59.820Z,91.84
2022-10-18T01:01:28.389Z,92.21
2022-10-18T01:03:55.899Z,91.85
2022-10-18T01:06:23.012Z,91.45
2022-10-18T01:09:04.760Z,91.84
2022-10-18T01:11:44.310Z,91.92
2022-10-18T01:14:25.921Z,91.68
2022-10-18T01:16:58.557Z,91.57
2022-10-18T01:19:38.753Z,91.53
2022-10-18T01:22:15.015Z,91.79
2022-10-18T01:24:53.660Z,91.59
2022-10-18T01:27:33.715Z,92.14
2022-10-18T01:30:12.058Z,91.22
2022-10-18T01:32:44.794Z,91.52
2022-10-18T01:35:14.141Z,91.72
2022-10-18T01:37:41.949Z,91.36
2022-10-18T01:40:09.276Z,91.45
2022-10-18T01:42:35.655Z,91.44
2022-10-18T01:45:03.580Z,91.62
2022-10-18T01:47:31.147Z,91.72
2022-10-18T01:50:02.938Z,91.69
2022-10-18T01:52:29.664Z,91.54
2022-10-18T01:54:56.884Z,91.98
2022-10-18T01:57:32.369Z,91.98
2022-10-18T02:00:04.757Z,91.77
2022-10-18T02:02:40.304Z,92.46
2022-10-18T02:05:17.850Z,92.33
2022-10-18T02:08:12.686Z,92.27
2022-10-18T02:10:50.474Z,92.09
2022-10-18T02:13:19.076Z,92.31
2022-10-18T02:15:47.300Z,91.79
2022-10-18T02:18:17.885Z,91.77
2022-10-18T02:20:45.577Z,92.01
2022-10-18T02:23:13.883Z,92.60
2022-10-18T02:25:40.698Z,92.52
2022-10-18T02:28:07.174Z,92.40
2022-10-18T02:30:37.542Z,92.26
2022-10-18T02:33:12.954Z,92.34
2022-10-18T02:35:46.842Z,92.04
2022-10-18T02:38:14.585Z,92.34
2022-10-18T02:40:40.990Z,92.30
2022-10-18T02:43:07.381Z,92.17
2022-10-18T02:45:33.846Z,92.62
2022-10-18T02:48:00.229Z,92.54
2022-10-18T02:50:26.630Z,92.64
2022-10-18T02:52:53.066Z,92.54
2022-10-18T02:55:19.759Z,92.38
2022-10-18T02:57:46.201Z,92.18
2022-10-18T03:00:12.884Z,92.76
2022-10-18T03:02:39.271Z,92.55
2022-10-18T03:05:05.760Z,92.46
2022-10-18T03:07:32.455Z,92.29
2022-10-18T03:09:59.002Z,92.67
2022-10-18T03:12:25.382Z,92.72
2022-10-18T03:14:51.754Z,93.44
2022-10-18T03:17:18.150Z,93.30
2022-10-18T03:19:44.518Z,93.51
2022-10-18T03:22:10.889Z,93.60
2022-10-18T03:24:37.307Z,93.66
2022-10-18T03:27:03.794Z,93.48
2022-10-18T03:29:30.185Z,93.52
2022-10-18T03:31:56.551Z,93.66
2022-10-18T03:34:22.948Z,93.90
2022-10-18T03:36:49.350Z,94.22
2022-10-18T03:39:15.805Z,94.44
2022-10-18T03:41:42.164Z,94.48
2022-10-18T03:44:08.610Z,94.56
2022-10-18T03:46:35.005Z,94.57
2022-10-18T03:49:01.405Z,94.94
2022-10-18T03:51:27.771Z,94.53
2022-10-18T03:53:54.142Z,94.98
2022-10-18T03:56:20.548Z,95.22
2022-10-18T03:58:46.928Z,94.70
2022-10-18T04:01:13.363Z,94.79
2022-10-18T04:03:39.770Z,95.26
2022-10-18T04:06:07.879Z,95.60
2022-10-18T04:08:34.260Z,96.12
2022-10-18T04:11:04.352Z,96.26
2022-10-18T04:13:30.733Z,96.71
2022-10-18T04:15:57.111Z,96.65
2022-10-18T04:18:23.474Z,96.76
2022-10-18T04:20:49.865Z,96.70
2022-10-18T04:23:16.230Z,96.58
2022-10-18T04:28:10.146Z,95.93
2022-10-18T04:30:36.501Z,96.26
2022-10-18T04:33:02.958Z,95.85
2022-10-18T04:35:29.375Z,96.01
2022-10-18T04:37:55.788Z,95.76
2022-10-18T04:40:22.221Z,95.88
2022-10-18T04:42:48.623Z,95.68
2022-10-18T04:45:14.996Z,95.16
2022-10-18T04:47:41.374Z,95.33
2022-10-18T04:50:07.958Z,95.24
2022-10-18T04:52:34.310Z,94.81
2022-10-18T04:55:00.688Z,95.19
2022-10-18T04:57:27.100Z,94.81
2022-10-18T04:59:53.627Z,95.12
2022-10-18T05:02:20.022Z,95.37
2022-10-18T05:04:46.440Z,95.52
2022-10-18T05:07:12.860Z,95.50
2022-10-18T05:09:39.260Z,95.38
2022-10-18T05:12:05.723Z,95.19
2022-10-18T05:14:32.133Z,95.28
2022-10-18T05:16:58.583Z,95.12
2022-10-18T05:19:24.948Z,95.39
2022-10-18T05:21:51.468Z,95.21
2022-10-18T05:24:17.852Z,94.67
2022-10-18T05:26:44.226Z,94.94
2022-10-18T05:29:10.757Z,94.67
2022-10-18T05:31:37.219Z,95.62
2022-10-18T05:34:03.731Z,95.73
2022-10-18T05:36:30.198Z,96.18
2022-10-18T05:38:59.645Z,96.31
2022-10-18T05:41:28.932Z,96.22
2022-10-18T05:43:55.366Z,96.58
2022-10-18T05:46:21.741Z,96.33
2022-10-18T05:48:50.052Z,96.29
2022-10-18T05:51:16.685Z,96.38
2022-10-18T05:53:43.058Z,96.36
2022-10-18T05:56:11.855Z,96.88
2022-10-18T05:58:38.941Z,97.73
2022-10-18T06:01:05.906Z,97.69
2022-10-18T06:03:32.562Z,98.19
2022-10-18T06:06:02.672Z,98.78
2022-10-18T06:08:29.103Z,99.23
2022-10-18T06:10:55.567Z,99.24
2022-10-18T06:13:21.979Z,99.10
2022-10-18T06:15:48.373Z,98.48
2022-10-18T06:18:14.747Z,98.36
2022-10-18T06:20:41.143Z,98.18
2022-10-18T06:23:07.530Z,97.51
2022-10-18T06:25:33.912Z,97.69
2022-10-18T06:28:00.286Z,97.35
2022-10-18T06:30:26.656Z,97.52
2022-10-18T06:32:53.032Z,97.58
2022-10-18T06:35:19.407Z,97.48
2022-10-18T06:37:45.837Z,97.84
2022-10-18T06:40:12.327Z,97.75
2022-10-18T06:42:38.730Z,97.45
2022-10-18T06:45:05.384Z,97.66
2022-10-18T06:47:31.764Z,97.80
2022-10-18T06:49:58.139Z,97.80
2022-10-18T06:52:25.740Z,97.60
2022-10-18T06:54:52.756Z,97.82
2022-10-18T06:57:20.031Z,97.90
2022-10-18T06:59:46.453Z,98.06
2022-10-18T07:02:17.337Z,98.55
2022-10-18T07:04:43.901Z,98.73
2022-10-18T07:07:10.393Z,98.22
2022-10-18T07:09:36.916Z,98.01
2022-10-18T07:12:03.393Z,98.69
2022-10-18T07:14:29.758Z,98.62
2022-10-18T07:16:58.464Z,98.59
2022-10-18T07:19:24.814Z,98.27
2022-10-18T07:21:51.173Z,98.24
2022-10-18T07:24:17.575Z,98.37
2022-10-18T07:26:44.010Z,98.65
2022-10-18T07:29:11.824Z,98.41
2022-10-18T07:31:39.152Z,98.83
2022-10-18T07:34:06.303Z,98.50
2022-10-18T07:36:32.728Z,99.11
2022-10-18T07:38:59.706Z,99.46
2022-10-18T07:41:26.220Z,99.38
2022-10-18T07:43:52.936Z,99.23
2022-10-18T07:46:20.180Z,99.96
2022-10-18T07:48:46.577Z,99.76
2022-10-18T07:51:13.058Z,99.99
2022-10-18T07:53:39.624Z,100.00
2022-10-18T07:56:09.439Z,100.00
2022-10-18T07:58:36.355Z,100.00
2022-10-18T08:01:06.513Z,100.00
2022-10-18T08:03:32.989Z,100.00
2022-10-18T08:05:59.488Z,100.00
2022-10-18T08:08:26.040Z,100.00
2022-10-18T08:10:52.730Z,100.00
2022-10-18T08:13:19.409Z,100.00
2022-10-18T08:15:45.807Z,100.00
2022-10-18T08:18:12.231Z,100.00
2022-10-18T08:20:42.474Z,100.00
2022-10-18T08:23:08.997Z,100.00
2022-10-18T08:28:02.731Z,100.00
2022-10-18T08:30:29.127Z,100.00
2022-10-18T08:32:55.545Z,100.00
2022-10-18T08:35:21.997Z,100.00
2022-10-18T08:37:48.589Z,100.00
2022-10-18T08:40:15.633Z,100.00
2022-10-18T08:42:41.993Z,100.00
2022-10-18T08:45:17.749Z,100.00
2022-10-18T08:47:57.862Z,100.00
2022-10-18T08:50:27.095Z,100.00
2022-10-18T08:52:58.532Z,100.00
2022-10-18T08:55:31.000Z,100.00
2022-10-18T08:57:58.171Z,100.00
2022-10-18T09:00:25.567Z,100.00
2022-10-18T09:02:56.273Z,100.00
2022-10-18T09:05:25.194Z,100.00
2022-10-18T09:07:57.414Z,100.00
2022-10-18T09:10:33.923Z,100.00
2022-10-18T09:13:16.921Z,100.00
2022-10-18T09:16:02.771Z,100.00
2022-10-18T09:18:41.367Z,100.00
2022-10-18T09:21:18.854Z,100.00
2022-10-18T09:23:54.380Z,100.00
2022-10-18T09:26:21.991Z,100.00
2022-10-18T09:29:07.016Z,100.00
2022-10-18T09:31:39.249Z,100.00
2022-10-18T09:34:10.298Z,100.00
2022-10-18T09:36:38.665Z,100.00
2022-10-18T09:39:09.686Z,100.00
2022-10-18T09:41:36.039Z,100.00
2022-10-18T09:44:06.830Z,100.00
2022-10-18T09:46:37.223Z,100.00
2022-10-18T09:49:22.380Z,100.00
2022-10-18T09:51:49.799Z,100.00
2022-10-18T09:54:22.083Z,100.00
2022-10-18T09:56:48.543Z,100.00
2022-10-18T09:59:33.718Z,100.00
2022-10-18T10:02:00.122Z,100.00
2022-10-18T10:04:26.812Z,100.00
2022-10-18T10:06:54.245Z,100.00
2022-10-18T10:09:29.424Z,100.00
2022-10-18T10:11:56.536Z,100.00
2022-10-18T10:14:27.472Z,100.00
2022-10-18T10:16:53.852Z,100.00
2022-10-18T10:19:23.592Z,100.00
2022-10-18T10:21:51.518Z,100.00
2022-10-18T10:24:20.970Z,100.00
2022-10-18T10:26:47.473Z,100.00
2022-10-18T10:29:44.119Z,100.00
2022-10-18T10:32:12.471Z,100.00
2022-10-18T10:34:42.341Z,100.00
2022-10-18T10:37:23.049Z,100.00
2022-10-18T10:40:17.818Z,100.00
2022-10-18T10:43:00.002Z,100.00
2022-10-18T10:45:55.353Z,100.00
2022-10-18T10:48:21.847Z,100.00
2022-10-18T10:50:55.413Z,98.56
2022-10-18T10:53:34.391Z,98.21
2022-10-18T10:56:01.696Z,98.45
2022-10-18T10:58:29.538Z,97.19
2022-10-18T11:00:56.565Z,95.96
2022-10-18T11:03:30.165Z,90.58
2022-10-18T11:05:58.239Z,86.47
2022-10-18T11:08:27.191Z,87.65
2022-10-18T11:10:56.373Z,86.40
2022-10-18T11:13:28.296Z,85.38
2022-10-18T11:16:01.692Z,83.76
2022-10-18T11:18:31.428Z,84.72
2022-10-18T11:21:07.891Z,87.08
2022-10-18T11:23:35.482Z,83.33
2022-10-18T11:26:04.860Z,84.61
2022-10-18T11:28:50.176Z,84.18
2022-10-18T11:31:35.366Z,80.25
2022-10-18T11:34:20.590Z,80.20
2022-10-18T11:37:27.007Z,78.87
2022-10-18T11:40:12.822Z,78.15
2022-10-18T11:42:48.068Z,77.59
2022-10-18T11:45:14.518Z,78.26
2022-10-18T11:47:45.571Z,79.32
2022-10-18T11:50:26.339Z,75.50
2022-10-18T11:53:01.861Z,77.52
2022-10-18T11:55:43.866Z,75.61
2022-10-18T11:58:28.875Z,75.51
2022-10-18T12:00:58.875Z,75.66
2022-10-18T12:03:25.293Z,73.48
2022-10-18T12:05:52.931Z,77.92
2022-10-18T12:08:22.260Z,76.20
2022-10-18T12:11:09.251Z,76.19
2022-10-18T12:13:54.758Z,74.08
2022-10-18T12:16:38.897Z,74.02
2022-10-18T12:19:16.294Z,73.89
2022-10-18T12:21:43.015Z,75.39
2022-10-18T12:24:13.542Z,73.50
2022-10-18T12:26:40.309Z,74.01
2022-10-18T12:29:21.199Z,73.92
2022-10-18T12:31:56.783Z,73.80
2022-10-18T12:34:23.513Z,74.62
2022-10-18T12:36:49.857Z,74.06
2022-10-18T12:39:29.129Z,74.85
2022-10-18T12:42:05.363Z,74.34
2022-10-18T12:44:33.555Z,73.13
2022-10-18T12:47:04.209Z,72.93
2022-10-18T12:49:32.489Z,73.75
2022-10-18T12:52:00.371Z,73.60
2022-10-18T12:54:28.725Z,72.39
2022-10-18T12:56:55.413Z,72.23
2022-10-18T12:59:26.336Z,72.49
2022-10-18T13:01:55.582Z,73.01
2022-10-18T13:04:27.897Z,72.29
2022-10-18T13:06:57.294Z,71.86
2022-10-18T13:09:37.203Z,72.04
2022-10-18T13:12:09.668Z,72.91
2022-10-18T13:15:05.898Z,72.05
2022-10-18T13:17:47.956Z,73.86
2022-10-18T13:20:25.970Z,72.52
2022-10-18T13:23:05.187Z,72.22
2022-10-18T13:25:50.152Z,72.28
2022-10-18T13:28:22.564Z,72.27
2022-10-18T13:31:07.781Z,72.35
2022-10-18T13:33:35.578Z,72.15
2022-10-18T13:36:01.989Z,72.84
2022-10-18T13:38:33.975Z,72.03
2022-10-18T13:41:04.704Z,72.09
2022-10-18T13:43:52.445Z,72.42
2022-10-18T13:46:19.708Z,72.67
2022-10-18T13:48:50.120Z,73.02
2022-10-18T13:51:16.473Z,72.79
2022-10-18T13:53:55.369Z,74.15
2022-10-18T13:56:45.119Z,73.97
2022-10-18T13:59:23.765Z,73.81
2022-10-18T14:02:05.650Z,73.16
2022-10-18T14:04:32.069Z,73.83
2022-10-18T14:07:02.242Z,74.27
2022-10-18T14:09:43.811Z,75.22
2022-10-18T14:12:14.189Z,75.75
2022-10-18T14:14:46.214Z,76.60
2022-10-18T14:17:31.536Z,76.89
2022-10-18T14:20:07.134Z,77.05
2022-10-18T14:22:41.054Z,77.21
2022-10-18T14:25:36.930Z,77.98
2022-10-18T14:28:11.363Z,78.14
2022-10-18T14:30:57.977Z,78.58
2022-10-18T14:33:25.575Z,78.77
2022-10-18T14:36:03.433Z,78.44
2022-10-18T14:38:30.161Z,78.24
2022-10-18T14:41:25.663Z,78.44
2022-10-18T14:43:53.226Z,78.51
2022-10-18T14:46:27.275Z,78.75
2022-10-18T14:48:55.489Z,78.93
2022-10-18T14:51:22.090Z,79.22
2022-10-18T14:53:49.018Z,79.29
2022-10-18T14:56:26.542Z,79.75
2022-10-18T14:58:54.017Z,80.08
2022-10-18T15:01:21.471Z,80.09
2022-10-18T15:03:48.212Z,80.18
2022-10-18T15:06:19.369Z,80.57
2022-10-18T15:08:47.766Z,80.80
2022-10-18T15:11:15.345Z,81.11
2022-10-18T15:13:46.672Z,81.22
2022-10-18T15:16:18.065Z,81.64
2022-10-18T15:18:48.996Z,81.63
2022-10-18T15:21:21.551Z,81.93
2022-10-18T15:23:48.363Z,82.22
2022-10-18T15:26:16.313Z,82.23
2022-10-18T15:28:51.505Z,82.47
2022-10-18T15:31:25.196Z,82.61
2022-10-18T15:33:52.468Z,82.73
2022-10-18T15:36:29.556Z,82.45
2022-10-18T15:39:14.617Z,83.41
2022-10-18T15:41:48.854Z,83.57
2022-10-18T15:44:21.262Z,83.80
2022-10-18T15:46:48.592Z,84.01
2022-10-18T15:49:24.410Z,84.02
2022-10-18T15:51:55.665Z,83.58
2022-10-18T15:54:31.240Z,83.83
2022-10-18T15:56:58.049Z,83.87
2022-10-18T15:59:26.470Z,83.94
2022-10-18T16:01:53.043Z,84.18
2022-10-18T16:04:23.004Z,84.27
2022-10-18T16:06:49.405Z,84.27
2022-10-18T16:09:16.872Z,84.12
2022-10-18T16:11:43.651Z,84.51
2022-10-18T16:14:10.082Z,84.23
2022-10-18T16:16:36.476Z,84.56
2022-10-18T16:19:03.619Z,84.72
2022-10-18T16:21:31.663Z,84.74
2022-10-18T16:23:58.194Z,84.82
2022-10-18T16:26:24.996Z,85.08
2022-10-18T16:28:51.484Z,85.86
2022-10-18T16:31:19.672Z,85.92
2022-10-18T16:33:46.337Z,85.64
2022-10-18T16:36:32.074Z,85.99
2022-10-18T16:39:01.172Z,86.19
2022-10-18T16:41:27.848Z,87.15
2022-10-18T16:43:54.318Z,86.81
2022-10-18T16:46:27.453Z,87.05
2022-10-18T16:48:54.238Z,87.23
2022-10-18T16:51:20.635Z,87.43
2022-10-18T16:53:47.479Z,87.60
2022-10-18T16:56:21.351Z,87.24
2022-10-18T16:58:48.231Z,86.85
2022-10-18T17:01:16.660Z,86.58
2022-10-18T17:03:43.670Z,86.51
2022-10-18T17:06:30.587Z,86.92
2022-10-18T17:08:57.354Z,88.26
2022-10-18T17:11:24.718Z,87.89
2022-10-18T17:13:51.094Z,87.63
2022-10-18T17:19:01.074Z,87.96
2022-10-18T17:21:28.268Z,87.66
2022-10-18T17:23:54.703Z,87.84
2022-10-18T17:26:30.538Z,87.58
2022-10-18T17:29:01.805Z,87.56
2022-10-18T17:31:29.142Z,87.70
2022-10-18T17:33:55.566Z,87.58
2022-10-18T17:36:22.188Z,88.21
2022-10-18T17:38:52.023Z,89.60
2022-10-18T17:41:18.477Z,89.53
2022-10-18T17:43:44.858Z,89.33
2022-10-18T17:46:14.542Z,89.41
2022-10-18T17:48:41.414Z,88.80
2022-10-18T17:51:08.642Z,89.06
2022-10-18T17:53:35.124Z,89.08
2022-10-18T17:56:02.976Z,89.80
2022-10-18T17:58:29.722Z,89.48
2022-10-18T18:00:56.082Z,89.22
2022-10-18T18:03:22.489Z,89.47
2022-10-18T18:05:49.028Z,89.55
2022-10-18T18:08:15.453Z,89.68
2022-10-18T18:10:42.073Z,89.19
2022-10-18T18:13:08.486Z,89.11
2022-10-18T18:15:35.037Z,89.31
2022-10-18T18:18:01.479Z,89.35
2022-10-18T18:20:27.930Z,89.38
2022-10-18T18:22:54.339Z,89.35
2022-10-18T18:25:20.729Z,90.03
2022-10-18T18:27:47.120Z,90.01
2022-10-18T18:30:14.455Z,90.21
2022-10-18T18:32:40.818Z,89.67
2022-10-18T18:35:07.409Z,89.74
2022-10-18T18:37:33.925Z,89.71
2022-10-18T18:40:00.329Z,89.77
2022-10-18T18:42:26.754Z,89.65
2022-10-18T18:44:53.187Z,89.54
2022-10-18T18:47:21.708Z,89.53
2022-10-18T18:49:48.467Z,89.48
2022-10-18T18:52:14.890Z,89.50
2022-10-18T18:54:41.340Z,89.67
2022-10-18T18:57:07.804Z,89.99
2022-10-18T18:59:34.336Z,90.09
2022-10-18T19:02:00.760Z,90.17
2022-10-18T19:04:29.004Z,89.95
2022-10-18T19:06:55.408Z,89.85
2022-10-18T19:09:22.884Z,89.94
2022-10-18T19:11:50.444Z,90.30
2022-10-18T19:14:16.895Z,90.35
2022-10-18T19:16:46.630Z,90.24
2022-10-18T19:19:14.578Z,90.63
2022-10-18T19:21:42.539Z,90.94
2022-10-18T19:24:08.941Z,91.09
2022-10-18T19:26:38.609Z,91.00
2022-10-18T19:29:07.053Z,90.64
2022-10-18T19:31:35.010Z,90.57
2022-10-18T19:34:05.256Z,91.29
2022-10-18T19:36:31.776Z,91.55
2022-10-18T19:38:58.197Z,91.70
2022-10-18T19:43:52.337Z,91.79
2022-10-18T19:46:18.819Z,91.59
2022-10-18T19:48:45.264Z,91.71
2022-10-18T19:51:14.407Z,92.19
2022-10-18T19:53:44.476Z,91.97
2022-10-18T19:56:16.318Z,91.85
2022-10-18T19:58:42.714Z,91.83
2022-10-18T20:01:09.129Z,91.88
2022-10-18T20:03:35.695Z,91.96
2022-10-18T20:06:02.730Z,92.74
2022-10-18T20:08:30.934Z,92.49
2022-10-18T20:11:01.232Z,92.38
2022-10-18T20:13:27.651Z,92.37
2022-10-18T20:15:54.129Z,92.28
2022-10-18T20:18:20.738Z,92.06
2022-10-18T20:20:48.397Z,92.31
2022-10-18T20:23:15.898Z,92.27
2022-10-18T20:25:42.297Z,92.95
2022-10-18T20:28:08.671Z,92.80
2022-10-18T20:30:35.054Z,93.35
2022-10-18T20:33:01.480Z,93.41
2022-10-18T20:35:27.906Z,93.42
2022-10-18T20:37:54.265Z,93.62
2022-10-18T20:40:20.633Z,93.99
2022-10-18T20:42:47.170Z,94.17
2022-10-18T20:45:13.559Z,93.88
2022-10-18T20:47:39.946Z,94.45
2022-10-18T20:50:06.613Z,94.67
2022-10-18T20:52:33.000Z,94.54
2022-10-18T20:54:59.360Z,94.89
2022-10-18T20:57:25.742Z,94.50
2022-10-18T20:59:52.141Z,94.58
2022-10-18T21:02:18.647Z,95.06
2022-10-18T21:04:45.069Z,95.34
2022-10-18T21:07:11.569Z,95.07
2022-10-18T21:09:37.961Z,95.41
2022-10-18T21:12:04.539Z,96.60
2022-10-18T21:14:31.132Z,96.15
2022-10-18T21:16:57.549Z,96.01
2022-10-18T21:19:25.300Z,96.02
2022-10-18T21:21:54.365Z,96.13
2022-10-18T21:24:21.440Z,96.09
2022-10-18T21:26:48.283Z,95.92
2022-10-18T21:29:19.330Z,95.88
2022-10-18T21:31:48.389Z,96.93
2022-10-18T21:34:16.413Z,97.10
2022-10-18T21:36:43.786Z,96.99
2022-10-18T21:39:14.926Z,96.70
2022-10-18T21:41:42.011Z,96.90
2022-10-18T21:44:10.711Z,97.98
2022-10-18T21:46:39.198Z,97.74
2022-10-18T21:49:06.348Z,99.27
2022-10-18T21:51:32.778Z,98.82
2022-10-18T21:53:59.212Z,99.70
2022-10-18T21:56:27.231Z,99.57
2022-10-18T21:58:53.762Z,99.34
2022-10-18T22:01:21.430Z,100.00
2022-10-18T22:03:48.568Z,100.00
2022-10-18T22:06:16.588Z,100.00
2022-10-18T22:08:48.810Z,100.00
2022-10-18T22:11:16.011Z,100.00
2022-10-18T22:13:43.038Z,100.00
2022-10-18T22:16:11.369Z,100.00
2022-10-18T22:18:37.753Z,100.00
2022-10-18T22:21:05.943Z,100.00
2022-10-18T22:23:33.210Z,100.00
2022-10-18T22:26:04.229Z,100.00
2022-10-18T22:28:30.629Z,100.00
2022-10-18T22:30:57.011Z,100.00
2022-10-18T22:33:23.411Z,100.00
2022-10-18T22:35:50.157Z,100.00
2022-10-18T22:38:16.555Z,100.00
2022-10-18T22:40:42.982Z,100.00
2022-10-18T22:43:09.388Z,100.00
2022-10-18T22:45:35.750Z,100.00
2022-10-18T22:48:02.107Z,100.00
2022-10-18T22:50:28.532Z,100.00
2022-10-18T22:52:54.894Z,100.00
2022-10-18T22:55:21.283Z,100.00
2022-10-18T22:57:47.641Z,100.00
2022-10-18T23:00:14.340Z,100.00
2022-10-18T23:02:40.772Z,100.00
2022-10-18T23:05:07.391Z,100.00
2022-10-18T23:07:33.770Z,100.00
2022-10-18T23:10:00.178Z,100.00
2022-10-18T23:12:26.579Z,100.00
2022-10-18T23:14:52.945Z,100.00
2022-10-18T23:17:19.320Z,100.00
2022-10-18T23:19:45.684Z,100.00
2022-10-18T23:22:15.050Z,100.00
2022-10-18T23:24:41.412Z,100.00
2022-10-18T23:27:08.216Z,100.00
2022-10-18T23:29:34.595Z,100.00
2022-10-18T23:32:00.948Z,100.00
2022-10-18T23:34:27.312Z,100.00
2022-10-18T23:36:53.687Z,100.00
2022-10-18T23:39:20.075Z,100.00
2022-10-18T23:41:46.445Z,100.00
2022-10-18T23:44:12.857Z,100.00
2022-10-18T23:46:39.220Z,100.00
2022-10-18T23:49:05.789Z,100.00
2022-10-18T23:51:32.182Z,100.00
2022-10-18T23:53:58.582Z,100.00
2022-10-18T23:56:24.965Z,100.00
2022-10-18T23:58:51.410Z,100.00
